ADDS TAF Data INFO
IDs: Format: Raw Decoded Include METARs

Data at: 1351 UTC 18 Jan 2018

KOSH 181253Z 22011G18KT 10SM CLR M07/M11 A2994 RMK AO2 SLP160 T10671111

No TAF found for KOSH

KATW 181345Z 22015KT 10SM SCT100 M07/M12 A2988

KATW 181136Z 1812/1912 23010KT P6SM SCT120 BKN250 WS020/29030KT
  FM181700 24012G18KT P6SM SCT120
  FM190000 23007KT P6SM SKC